Ana Sayfa
METAR-TAF:

METAR-TAF

Havaalanları :

Bangkok, Tayland

Enlem: 13-54-45N, Boylam: 100-36-24E, yükseklik: 4 m

Güncel hava durumu gözlemi

Rapor saat 20:30 UTC de 21 dakika önce yapıldı.
Rüzgar güney/güneybatıdan 5 kt
Sıcaklık 30°C
Nem 84%
Basınç 1007 hPa
Görüş mesafesi 10 km veya daha fazla
2500 ft yükseklikte az bulutlu

METAR: VTBD 192030Z 21005KT 9999 FEW025 30/27 Q1007 NOSIG

Saat: 03:51 (20:51 UTC)

Tahmin

Rapor saat 17:00 UTC de 3 saat ve 51 dakika önce yapıldı.
Ayın 19'si saat 18 UTC'den ayın 20'si saat 24 UTC'ye kadar geçerli Tahmin
Rüzgar güney/güneybatıdan 8 kt
Görüş mesafesi 10 km veya daha fazla
2000 ft yükseklikte az bulutlu
Dönüşüyor
ayın 19'si saat 21 UTC'den ayın 19'si saat 23 UTC'ye kadar
Rüzgar batıdan 8 kt
Dönüşüyor
ayın 20'si saat 04 UTC'den ayın 20'si saat 06 UTC'ye kadar
Rüzgar güney/güneybatıdan 8 kt

TAF: VTBD 191700Z 1918/2024 20008KT 9999 FEW020 BECMG 1921/1923 27008KT BECMG 2004/2006 20008KT

4.000'den fazla havaalanı için hava durumu gözlemleri ve tahminleri (METAR ve TAF raporları).

Kullanılabilir istasyonlar harita üzerinde sarı ve kırmızı noktalarla gösterilir.

İstasyonun adını görmek için fareyi noktanın üzerinde gezdirin.

Sonrasında hava gözlem ve tahminlerini görmek için tıklayın.

Haritayı değiştirmek için: yaklaştırmak için siyah artı işaretli yeşil düğmeye ve uzaklaştırmak için de eksi işaretli düğmeye hızla tıklayın; bitişik haritalar için yeşil okları kullanın.


METAR-TAF: